sensor_id;sensor_type;location;lat;lon;timestamp;P1;durP1;ratioP1;P2;durP2;ratioP2
56429;SDS011;42332;52.136;20.666;2023-07-29T00:00:40;13.05;;;5.47;;
56429;SDS011;42332;52.136;20.666;2023-07-29T00:03:05;14.55;;;6.00;;
56429;SDS011;42332;52.136;20.666;2023-07-29T00:05:31;9.85;;;5.72;;
56429;SDS011;42332;52.136;20.666;2023-07-29T00:07:56;10.07;;;5.93;;
56429;SDS011;42332;52.136;20.666;2023-07-29T00:10:22;10.40;;;5.65;;
56429;SDS011;42332;52.136;20.666;2023-07-29T00:12:47;15.15;;;5.70;;
56429;SDS011;42332;52.136;20.666;2023-07-29T00:15:13;17.15;;;5.78;;
56429;SDS011;42332;52.136;20.666;2023-07-29T00:17:38;14.43;;;5.68;;
56429;SDS011;42332;52.136;20.666;2023-07-29T00:20:04;11.15;;;5.82;;
56429;SDS011;42332;52.136;20.666;2023-07-29T00:22:30;18.88;;;6.22;;
56429;SDS011;42332;52.136;20.666;2023-07-29T00:24:55;15.27;;;6.65;;
56429;SDS011;42332;52.136;20.666;2023-07-29T00:27:22;12.40;;;6.20;;
56429;SDS011;42332;52.136;20.666;2023-07-29T00:29:47;14.15;;;6.10;;
56429;SDS011;42332;52.136;20.666;2023-07-29T00:32:13;12.05;;;5.50;;
56429;SDS011;42332;52.136;20.666;2023-07-29T00:34:38;12.98;;;6.85;;
56429;SDS011;42332;52.136;20.666;2023-07-29T00:37:03;11.05;;;6.30;;
56429;SDS011;42332;52.136;20.666;2023-07-29T00:39:30;12.50;;;6.13;;
56429;SDS011;42332;52.136;20.666;2023-07-29T00:41:56;12.68;;;6.53;;
56429;SDS011;42332;52.136;20.666;2023-07-29T00:44:21;13.15;;;7.15;;
56429;SDS011;42332;52.136;20.666;2023-07-29T00:46:47;10.95;;;6.90;;
56429;SDS011;42332;52.136;20.666;2023-07-29T00:49:15;13.93;;;6.85;;
56429;SDS011;42332;52.136;20.666;2023-07-29T00:51:40;13.85;;;7.00;;
56429;SDS011;42332;52.136;20.666;2023-07-29T00:54:06;14.60;;;6.88;;
56429;SDS011;42332;52.136;20.666;2023-07-29T00:56:31;15.82;;;7.65;;
56429;SDS011;42332;52.136;20.666;2023-07-29T00:58:57;13.68;;;7.35;;
56429;SDS011;42332;52.136;20.666;2023-07-29T01:01:26;18.02;;;6.97;;
56429;SDS011;42332;52.136;20.666;2023-07-29T01:03:52;13.35;;;7.20;;
56429;SDS011;42332;52.136;20.666;2023-07-29T01:06:23;15.32;;;7.60;;
56429;SDS011;42332;52.136;20.666;2023-07-29T01:08:55;12.57;;;7.07;;
56429;SDS011;42332;52.136;20.666;2023-07-29T01:14:21;11.77;;;7.15;;
56429;SDS011;42332;52.136;20.666;2023-07-29T01:17:03;15.93;;;6.88;;
56429;SDS011;42332;52.136;20.666;2023-07-29T01:19:42;16.02;;;7.10;;
56429;SDS011;42332;52.136;20.666;2023-07-29T01:22:33;16.40;;;7.82;;
56429;SDS011;42332;52.136;20.666;2023-07-29T01:24:59;15.65;;;7.30;;
56429;SDS011;42332;52.136;20.666;2023-07-29T01:27:24;13.18;;;7.10;;
56429;SDS011;42332;52.136;20.666;2023-07-29T01:29:50;15.57;;;7.90;;
56429;SDS011;42332;52.136;20.666;2023-07-29T01:33:02;15.10;;;8.85;;
56429;SDS011;42332;52.136;20.666;2023-07-29T01:38:05;16.67;;;8.13;;
56429;SDS011;42332;52.136;20.666;2023-07-29T01:40:32;17.85;;;8.15;;
56429;SDS011;42332;52.136;20.666;2023-07-29T01:42:58;21.67;;;8.82;;
56429;SDS011;42332;52.136;20.666;2023-07-29T01:45:24;19.38;;;8.70;;
56429;SDS011;42332;52.136;20.666;2023-07-29T01:47:50;17.98;;;8.30;;
56429;SDS011;42332;52.136;20.666;2023-07-29T01:50:16;20.70;;;7.80;;
56429;SDS011;42332;52.136;20.666;2023-07-29T01:52:41;18.00;;;8.98;;
56429;SDS011;42332;52.136;20.666;2023-07-29T01:55:07;16.13;;;9.38;;
56429;SDS011;42332;52.136;20.666;2023-07-29T01:57:32;26.88;;;9.32;;
56429;SDS011;42332;52.136;20.666;2023-07-29T01:59:58;18.92;;;8.55;;
56429;SDS011;42332;52.136;20.666;2023-07-29T02:02:23;18.70;;;9.65;;
56429;SDS011;42332;52.136;20.666;2023-07-29T02:04:49;21.27;;;10.13;;
56429;SDS011;42332;52.136;20.666;2023-07-29T02:07:16;18.52;;;9.40;;
56429;SDS011;42332;52.136;20.666;2023-07-29T02:09:43;34.00;;;8.95;;
56429;SDS011;42332;52.136;20.666;2023-07-29T02:12:08;24.98;;;9.57;;
56429;SDS011;42332;52.136;20.666;2023-07-29T02:14:33;19.88;;;9.93;;
56429;SDS011;42332;52.136;20.666;2023-07-29T02:16:59;23.90;;;10.13;;
56429;SDS011;42332;52.136;20.666;2023-07-29T02:19:24;23.60;;;10.80;;
56429;SDS011;42332;52.136;20.666;2023-07-29T02:21:49;28.25;;;9.85;;
56429;SDS011;42332;52.136;20.666;2023-07-29T02:24:15;26.95;;;9.75;;
56429;SDS011;42332;52.136;20.666;2023-07-29T02:26:41;31.90;;;11.52;;
56429;SDS011;42332;52.136;20.666;2023-07-29T02:29:06;62.90;;;11.70;;
56429;SDS011;42332;52.136;20.666;2023-07-29T02:31:32;20.13;;;9.32;;
56429;SDS011;42332;52.136;20.666;2023-07-29T02:33:59;52.13;;;10.23;;
56429;SDS011;42332;52.136;20.666;2023-07-29T02:36:24;24.88;;;9.70;;
56429;SDS011;42332;52.136;20.666;2023-07-29T02:38:50;29.98;;;10.65;;
56429;SDS011;42332;52.136;20.666;2023-07-29T02:41:15;27.65;;;9.32;;
56429;SDS011;42332;52.136;20.666;2023-07-29T02:43:41;24.85;;;9.90;;
56429;SDS011;42332;52.136;20.666;2023-07-29T02:46:08;33.10;;;9.30;;
56429;SDS011;42332;52.136;20.666;2023-07-29T02:48:33;31.52;;;7.72;;
56429;SDS011;42332;52.136;20.666;2023-07-29T02:50:59;44.33;;;9.38;;
56429;SDS011;42332;52.136;20.666;2023-07-29T02:53:24;71.30;;;8.65;;
56429;SDS011;42332;52.136;20.666;2023-07-29T02:55:50;27.85;;;9.25;;
56429;SDS011;42332;52.136;20.666;2023-07-29T02:58:16;52.13;;;8.98;;
56429;SDS011;42332;52.136;20.666;2023-07-29T03:00:41;35.25;;;9.57;;
56429;SDS011;42332;52.136;20.666;2023-07-29T03:03:07;17.48;;;8.32;;
56429;SDS011;42332;52.136;20.666;2023-07-29T03:05:33;54.13;;;8.07;;
56429;SDS011;42332;52.136;20.666;2023-07-29T03:07:59;48.28;;;8.50;;
56429;SDS011;42332;52.136;20.666;2023-07-29T03:10:24;58.63;;;9.57;;
56429;SDS011;42332;52.136;20.666;2023-07-29T03:12:50;20.33;;;8.60;;
56429;SDS011;42332;52.136;20.666;2023-07-29T03:15:15;49.65;;;8.60;;
56429;SDS011;42332;52.136;20.666;2023-07-29T03:17:41;17.45;;;7.40;;
56429;SDS011;42332;52.136;20.666;2023-07-29T03:20:06;63.92;;;7.47;;
56429;SDS011;42332;52.136;20.666;2023-07-29T03:22:32;14.75;;;7.15;;
56429;SDS011;42332;52.136;20.666;2023-07-29T03:24:57;21.15;;;7.88;;
56429;SDS011;42332;52.136;20.666;2023-07-29T03:27:23;15.32;;;7.18;;
56429;SDS011;42332;52.136;20.666;2023-07-29T03:29:48;33.78;;;7.38;;
56429;SDS011;42332;52.136;20.666;2023-07-29T03:32:13;33.45;;;7.97;;
56429;SDS011;42332;52.136;20.666;2023-07-29T03:34:39;17.73;;;7.25;;
56429;SDS011;42332;52.136;20.666;2023-07-29T03:37:05;15.30;;;6.75;;
56429;SDS011;42332;52.136;20.666;2023-07-29T03:39:31;42.08;;;8.00;;
56429;SDS011;42332;52.136;20.666;2023-07-29T03:41:56;20.48;;;7.40;;
56429;SDS011;42332;52.136;20.666;2023-07-29T03:44:22;22.40;;;6.95;;
56429;SDS011;42332;52.136;20.666;2023-07-29T03:46:47;27.85;;;7.43;;
56429;SDS011;42332;52.136;20.666;2023-07-29T03:49:12;18.35;;;6.93;;
56429;SDS011;42332;52.136;20.666;2023-07-29T03:51:38;33.80;;;7.57;;
56429;SDS011;42332;52.136;20.666;2023-07-29T03:54:03;18.85;;;7.38;;
56429;SDS011;42332;52.136;20.666;2023-07-29T03:56:28;62.20;;;8.77;;
56429;SDS011;42332;52.136;20.666;2023-07-29T03:58:57;20.85;;;8.00;;
56429;SDS011;42332;52.136;20.666;2023-07-29T04:01:27;19.73;;;7.72;;
56429;SDS011;42332;52.136;20.666;2023-07-29T04:03:52;51.75;;;8.52;;
56429;SDS011;42332;52.136;20.666;2023-07-29T04:06:17;19.00;;;7.43;;
56429;SDS011;42332;52.136;20.666;2023-07-29T04:08:43;23.55;;;7.43;;
56429;SDS011;42332;52.136;20.666;2023-07-29T04:11:08;13.55;;;7.93;;
56429;SDS011;42332;52.136;20.666;2023-07-29T04:13:34;21.10;;;7.70;;
56429;SDS011;42332;52.136;20.666;2023-07-29T04:15:59;16.70;;;8.20;;
56429;SDS011;42332;52.136;20.666;2023-07-29T04:18:25;23.63;;;8.40;;
56429;SDS011;42332;52.136;20.666;2023-07-29T04:20:50;16.88;;;8.55;;
56429;SDS011;42332;52.136;20.666;2023-07-29T04:23:15;24.10;;;9.55;;
56429;SDS011;42332;52.136;20.666;2023-07-29T04:25:41;24.95;;;8.95;;
56429;SDS011;42332;52.136;20.666;2023-07-29T04:28:06;18.05;;;9.38;;
56429;SDS011;42332;52.136;20.666;2023-07-29T04:30:31;20.95;;;9.40;;
56429;SDS011;42332;52.136;20.666;2023-07-29T04:32:57;20.52;;;8.90;;
56429;SDS011;42332;52.136;20.666;2023-07-29T04:35:22;19.90;;;9.85;;
56429;SDS011;42332;52.136;20.666;2023-07-29T04:37:48;21.92;;;10.65;;
56429;SDS011;42332;52.136;20.666;2023-07-29T04:40:13;17.13;;;9.10;;
56429;SDS011;42332;52.136;20.666;2023-07-29T04:42:39;23.17;;;10.55;;
56429;SDS011;42332;52.136;20.666;2023-07-29T04:45:04;20.05;;;10.93;;
56429;SDS011;42332;52.136;20.666;2023-07-29T04:47:30;22.88;;;10.32;;
56429;SDS011;42332;52.136;20.666;2023-07-29T04:49:55;20.40;;;11.70;;
56429;SDS011;42332;52.136;20.666;2023-07-29T04:52:20;29.27;;;11.60;;
56429;SDS011;42332;52.136;20.666;2023-07-29T04:54:46;20.48;;;10.35;;
56429;SDS011;42332;52.136;20.666;2023-07-29T04:57:12;19.50;;;10.32;;
56429;SDS011;42332;52.136;20.666;2023-07-29T04:59:37;20.58;;;10.65;;
56429;SDS011;42332;52.136;20.666;2023-07-29T05:02:02;19.13;;;9.73;;
56429;SDS011;42332;52.136;20.666;2023-07-29T05:04:28;24.05;;;10.93;;
56429;SDS011;42332;52.136;20.666;2023-07-29T05:06:53;21.05;;;10.20;;
56429;SDS011;42332;52.136;20.666;2023-07-29T05:09:19;17.45;;;10.20;;
56429;SDS011;42332;52.136;20.666;2023-07-29T05:11:45;17.52;;;10.02;;
56429;SDS011;42332;52.136;20.666;2023-07-29T05:14:11;17.58;;;8.57;;
56429;SDS011;42332;52.136;20.666;2023-07-29T05:16:37;14.75;;;8.80;;
56429;SDS011;42332;52.136;20.666;2023-07-29T05:19:03;17.42;;;9.25;;
56429;SDS011;42332;52.136;20.666;2023-07-29T05:21:28;16.70;;;9.77;;
56429;SDS011;42332;52.136;20.666;2023-07-29T05:23:54;16.08;;;9.68;;
56429;SDS011;42332;52.136;20.666;2023-07-29T05:26:19;16.88;;;9.05;;
56429;SDS011;42332;52.136;20.666;2023-07-29T05:28:44;19.25;;;9.95;;
56429;SDS011;42332;52.136;20.666;2023-07-29T05:31:10;19.92;;;9.68;;
56429;SDS011;42332;52.136;20.666;2023-07-29T05:33:35;16.55;;;9.18;;
56429;SDS011;42332;52.136;20.666;2023-07-29T05:36:01;15.77;;;9.10;;
56429;SDS011;42332;52.136;20.666;2023-07-29T05:38:26;16.00;;;9.38;;
56429;SDS011;42332;52.136;20.666;2023-07-29T05:40:52;19.65;;;8.68;;
56429;SDS011;42332;52.136;20.666;2023-07-29T05:43:17;15.38;;;8.60;;
56429;SDS011;42332;52.136;20.666;2023-07-29T05:45:42;15.32;;;8.18;;
56429;SDS011;42332;52.136;20.666;2023-07-29T05:48:08;15.05;;;9.27;;
56429;SDS011;42332;52.136;20.666;2023-07-29T05:50:33;17.25;;;9.02;;
56429;SDS011;42332;52.136;20.666;2023-07-29T05:52:58;15.38;;;8.95;;
56429;SDS011;42332;52.136;20.666;2023-07-29T05:55:24;19.08;;;9.68;;
56429;SDS011;42332;52.136;20.666;2023-07-29T05:57:49;21.65;;;9.05;;
56429;SDS011;42332;52.136;20.666;2023-07-29T06:00:14;18.50;;;9.70;;
56429;SDS011;42332;52.136;20.666;2023-07-29T06:02:40;16.30;;;9.10;;
56429;SDS011;42332;52.136;20.666;2023-07-29T06:05:08;16.90;;;8.45;;
56429;SDS011;42332;52.136;20.666;2023-07-29T06:07:33;15.90;;;8.75;;
56429;SDS011;42332;52.136;20.666;2023-07-29T06:09:59;15.48;;;8.95;;
56429;SDS011;42332;52.136;20.666;2023-07-29T06:12:25;16.55;;;9.18;;
56429;SDS011;42332;52.136;20.666;2023-07-29T06:14:50;16.15;;;9.35;;
56429;SDS011;42332;52.136;20.666;2023-07-29T06:17:15;15.95;;;8.25;;
56429;SDS011;42332;52.136;20.666;2023-07-29T06:19:41;20.67;;;9.55;;
56429;SDS011;42332;52.136;20.666;2023-07-29T06:22:06;17.23;;;8.75;;
56429;SDS011;42332;52.136;20.666;2023-07-29T06:24:32;16.52;;;8.77;;
56429;SDS011;42332;52.136;20.666;2023-07-29T06:26:57;14.35;;;8.55;;
56429;SDS011;42332;52.136;20.666;2023-07-29T06:29:23;14.68;;;8.45;;
56429;SDS011;42332;52.136;20.666;2023-07-29T06:31:48;15.20;;;8.32;;
56429;SDS011;42332;52.136;20.666;2023-07-29T06:34:14;15.63;;;8.20;;
56429;SDS011;42332;52.136;20.666;2023-07-29T06:36:39;12.63;;;7.40;;
56429;SDS011;42332;52.136;20.666;2023-07-29T06:39:04;16.02;;;8.05;;
56429;SDS011;42332;52.136;20.666;2023-07-29T06:41:30;13.98;;;7.68;;
56429;SDS011;42332;52.136;20.666;2023-07-29T06:43:55;14.43;;;8.07;;
56429;SDS011;42332;52.136;20.666;2023-07-29T06:46:21;12.45;;;7.10;;
56429;SDS011;42332;52.136;20.666;2023-07-29T06:48:46;12.77;;;6.85;;
56429;SDS011;42332;52.136;20.666;2023-07-29T06:51:11;13.00;;;6.47;;
56429;SDS011;42332;52.136;20.666;2023-07-29T06:53:37;13.68;;;6.90;;
56429;SDS011;42332;52.136;20.666;2023-07-29T06:56:02;13.85;;;7.88;;
56429;SDS011;42332;52.136;20.666;2023-07-29T06:58:28;11.60;;;7.05;;
56429;SDS011;42332;52.136;20.666;2023-07-29T07:00:53;13.45;;;6.95;;
56429;SDS011;42332;52.136;20.666;2023-07-29T07:03:18;11.15;;;7.00;;
56429;SDS011;42332;52.136;20.666;2023-07-29T07:05:44;10.32;;;6.10;;
56429;SDS011;42332;52.136;20.666;2023-07-29T07:08:09;12.45;;;6.63;;
56429;SDS011;42332;52.136;20.666;2023-07-29T07:10:34;9.82;;;6.13;;
56429;SDS011;42332;52.136;20.666;2023-07-29T07:13:00;9.90;;;5.90;;
56429;SDS011;42332;52.136;20.666;2023-07-29T07:15:25;14.68;;;6.35;;
56429;SDS011;42332;52.136;20.666;2023-07-29T07:17:51;10.63;;;6.57;;
56429;SDS011;42332;52.136;20.666;2023-07-29T07:20:16;10.20;;;6.10;;
56429;SDS011;42332;52.136;20.666;2023-07-29T07:22:42;10.80;;;5.65;;
56429;SDS011;42332;52.136;20.666;2023-07-29T07:25:07;10.07;;;5.43;;
56429;SDS011;42332;52.136;20.666;2023-07-29T07:27:33;9.13;;;5.25;;
56429;SDS011;42332;52.136;20.666;2023-07-29T07:29:58;9.07;;;5.38;;
56429;SDS011;42332;52.136;20.666;2023-07-29T07:32:23;8.55;;;5.03;;
56429;SDS011;42332;52.136;20.666;2023-07-29T07:34:49;9.90;;;5.28;;
56429;SDS011;42332;52.136;20.666;2023-07-29T07:37:14;11.93;;;5.70;;
56429;SDS011;42332;52.136;20.666;2023-07-29T07:39:39;10.65;;;5.45;;
56429;SDS011;42332;52.136;20.666;2023-07-29T07:42:05;9.10;;;5.10;;
56429;SDS011;42332;52.136;20.666;2023-07-29T07:44:30;8.75;;;4.97;;
56429;SDS011;42332;52.136;20.666;2023-07-29T07:46:56;9.35;;;4.75;;
56429;SDS011;42332;52.136;20.666;2023-07-29T07:49:21;7.43;;;4.07;;
56429;SDS011;42332;52.136;20.666;2023-07-29T07:51:47;6.85;;;3.88;;
56429;SDS011;42332;52.136;20.666;2023-07-29T07:54:12;7.35;;;3.90;;
56429;SDS011;42332;52.136;20.666;2023-07-29T07:56:38;6.60;;;3.70;;
56429;SDS011;42332;52.136;20.666;2023-07-29T07:59:03;5.22;;;2.60;;
56429;SDS011;42332;52.136;20.666;2023-07-29T08:01:33;6.43;;;3.60;;
56429;SDS011;42332;52.136;20.666;2023-07-29T08:04:02;5.40;;;2.90;;
56429;SDS011;42332;52.136;20.666;2023-07-29T08:06:28;8.68;;;4.00;;
56429;SDS011;42332;52.136;20.666;2023-07-29T08:08:54;7.90;;;4.20;;
56429;SDS011;42332;52.136;20.666;2023-07-29T08:11:19;8.40;;;3.90;;
56429;SDS011;42332;52.136;20.666;2023-07-29T08:13:45;8.00;;;4.03;;
56429;SDS011;42332;52.136;20.666;2023-07-29T08:16:10;10.05;;;3.58;;
56429;SDS011;42332;52.136;20.666;2023-07-29T08:18:35;5.88;;;3.13;;
56429;SDS011;42332;52.136;20.666;2023-07-29T08:21:01;6.10;;;3.30;;
56429;SDS011;42332;52.136;20.666;2023-07-29T08:23:28;6.75;;;3.40;;
56429;SDS011;42332;52.136;20.666;2023-07-29T08:25:55;4.57;;;2.53;;
56429;SDS011;42332;52.136;20.666;2023-07-29T08:28:25;6.18;;;3.38;;
56429;SDS011;42332;52.136;20.666;2023-07-29T08:30:51;7.00;;;2.92;;
56429;SDS011;42332;52.136;20.666;2023-07-29T08:33:16;5.60;;;3.03;;
56429;SDS011;42332;52.136;20.666;2023-07-29T08:35:41;6.00;;;3.03;;
56429;SDS011;42332;52.136;20.666;2023-07-29T08:38:07;5.90;;;2.75;;
56429;SDS011;42332;52.136;20.666;2023-07-29T08:40:32;5.43;;;2.65;;
56429;SDS011;42332;52.136;20.666;2023-07-29T08:43:00;5.45;;;2.72;;
56429;SDS011;42332;52.136;20.666;2023-07-29T08:45:30;7.10;;;2.90;;
56429;SDS011;42332;52.136;20.666;2023-07-29T08:47:57;4.95;;;2.63;;
56429;SDS011;42332;52.136;20.666;2023-07-29T08:50:24;4.93;;;2.25;;
56429;SDS011;42332;52.136;20.666;2023-07-29T08:52:49;7.32;;;2.50;;
56429;SDS011;42332;52.136;20.666;2023-07-29T08:55:16;4.93;;;2.22;;
56429;SDS011;42332;52.136;20.666;2023-07-29T08:57:41;5.53;;;2.20;;
56429;SDS011;42332;52.136;20.666;2023-07-29T09:00:07;7.50;;;2.33;;
56429;SDS011;42332;52.136;20.666;2023-07-29T09:02:33;4.85;;;2.10;;
56429;SDS011;42332;52.136;20.666;2023-07-29T09:04:58;3.63;;;1.77;;
56429;SDS011;42332;52.136;20.666;2023-07-29T09:07:23;3.45;;;1.55;;
56429;SDS011;42332;52.136;20.666;2023-07-29T09:09:49;4.18;;;1.88;;
56429;SDS011;42332;52.136;20.666;2023-07-29T09:12:14;3.80;;;1.80;;
56429;SDS011;42332;52.136;20.666;2023-07-29T09:14:40;8.63;;;1.80;;
56429;SDS011;42332;52.136;20.666;2023-07-29T09:17:09;10.85;;;1.80;;
56429;SDS011;42332;52.136;20.666;2023-07-29T09:19:35;6.53;;;1.90;;
56429;SDS011;42332;52.136;20.666;2023-07-29T09:22:00;4.40;;;1.90;;
56429;SDS011;42332;52.136;20.666;2023-07-29T09:24:25;3.95;;;1.80;;
56429;SDS011;42332;52.136;20.666;2023-07-29T09:26:54;4.88;;;2.10;;
56429;SDS011;42332;52.136;20.666;2023-07-29T09:29:23;3.10;;;1.50;;
56429;SDS011;42332;52.136;20.666;2023-07-29T09:31:49;4.45;;;2.13;;
56429;SDS011;42332;52.136;20.666;2023-07-29T09:34:15;5.13;;;1.90;;
56429;SDS011;42332;52.136;20.666;2023-07-29T09:36:42;4.05;;;1.60;;
56429;SDS011;42332;52.136;20.666;2023-07-29T09:39:10;3.92;;;1.70;;
56429;SDS011;42332;52.136;20.666;2023-07-29T09:41:37;4.63;;;1.92;;
56429;SDS011;42332;52.136;20.666;2023-07-29T09:44:03;3.40;;;1.50;;
56429;SDS011;42332;52.136;20.666;2023-07-29T09:46:33;5.72;;;1.80;;
56429;SDS011;42332;52.136;20.666;2023-07-29T09:48:59;3.67;;;1.70;;
56429;SDS011;42332;52.136;20.666;2023-07-29T09:51:24;4.50;;;1.90;;
56429;SDS011;42332;52.136;20.666;2023-07-29T09:53:50;5.82;;;1.63;;
56429;SDS011;42332;52.136;20.666;2023-07-29T09:56:17;3.60;;;2.05;;
56429;SDS011;42332;52.136;20.666;2023-07-29T09:58:45;4.30;;;1.98;;
56429;SDS011;42332;52.136;20.666;2023-07-29T10:01:11;3.97;;;1.88;;
56429;SDS011;42332;52.136;20.666;2023-07-29T10:03:37;3.83;;;1.50;;
56429;SDS011;42332;52.136;20.666;2023-07-29T10:06:02;3.88;;;1.70;;
56429;SDS011;42332;52.136;20.666;2023-07-29T10:08:29;3.70;;;1.60;;
56429;SDS011;42332;52.136;20.666;2023-07-29T10:10:57;4.57;;;2.13;;
56429;SDS011;42332;52.136;20.666;2023-07-29T10:13:24;4.55;;;2.17;;
56429;SDS011;42332;52.136;20.666;2023-07-29T10:15:50;3.33;;;1.60;;
56429;SDS011;42332;52.136;20.666;2023-07-29T10:18:16;3.95;;;1.80;;
56429;SDS011;42332;52.136;20.666;2023-07-29T10:20:43;5.68;;;1.80;;
56429;SDS011;42332;52.136;20.666;2023-07-29T10:23:09;3.83;;;1.90;;
56429;SDS011;42332;52.136;20.666;2023-07-29T10:25:38;3.20;;;1.65;;
56429;SDS011;42332;52.136;20.666;2023-07-29T10:28:08;3.80;;;1.90;;
56429;SDS011;42332;52.136;20.666;2023-07-29T10:30:36;5.15;;;1.75;;
56429;SDS011;42332;52.136;20.666;2023-07-29T10:33:02;4.38;;;2.13;;
56429;SDS011;42332;52.136;20.666;2023-07-29T10:35:29;8.00;;;2.30;;
56429;SDS011;42332;52.136;20.666;2023-07-29T10:37:55;5.07;;;2.00;;
56429;SDS011;42332;52.136;20.666;2023-07-29T10:40:20;3.92;;;1.85;;
56429;SDS011;42332;52.136;20.666;2023-07-29T10:43:00;4.28;;;1.92;;
56429;SDS011;42332;52.136;20.666;2023-07-29T10:45:27;6.18;;;1.75;;
56429;SDS011;42332;52.136;20.666;2023-07-29T10:48:04;5.53;;;1.80;;
56429;SDS011;42332;52.136;20.666;2023-07-29T10:50:31;4.97;;;2.28;;
56429;SDS011;42332;52.136;20.666;2023-07-29T10:52:56;4.75;;;1.63;;
56429;SDS011;42332;52.136;20.666;2023-07-29T10:55:23;6.80;;;2.08;;
56429;SDS011;42332;52.136;20.666;2023-07-29T10:58:13;4.90;;;1.80;;
56429;SDS011;42332;52.136;20.666;2023-07-29T11:00:43;6.18;;;2.15;;
56429;SDS011;42332;52.136;20.666;2023-07-29T11:03:09;5.22;;;1.83;;
56429;SDS011;42332;52.136;20.666;2023-07-29T11:05:41;4.50;;;2.00;;
56429;SDS011;42332;52.136;20.666;2023-07-29T11:10:57;4.75;;;2.08;;
56429;SDS011;42332;52.136;20.666;2023-07-29T11:13:23;3.97;;;1.85;;
56429;SDS011;42332;52.136;20.666;2023-07-29T11:15:51;6.63;;;2.17;;
56429;SDS011;42332;52.136;20.666;2023-07-29T11:18:18;4.07;;;1.98;;
56429;SDS011;42332;52.136;20.666;2023-07-29T11:20:45;5.40;;;1.63;;
56429;SDS011;42332;52.136;20.666;2023-07-29T11:23:11;4.25;;;1.95;;
56429;SDS011;42332;52.136;20.666;2023-07-29T11:25:36;7.80;;;2.13;;
56429;SDS011;42332;52.136;20.666;2023-07-29T11:28:03;4.28;;;2.08;;
56429;SDS011;42332;52.136;20.666;2023-07-29T11:30:28;5.28;;;2.10;;
56429;SDS011;42332;52.136;20.666;2023-07-29T11:32:57;5.38;;;1.92;;
56429;SDS011;42332;52.136;20.666;2023-07-29T11:35:23;4.15;;;1.70;;
56429;SDS011;42332;52.136;20.666;2023-07-29T11:37:49;7.30;;;1.73;;
56429;SDS011;42332;52.136;20.666;2023-07-29T11:40:16;5.95;;;1.90;;
56429;SDS011;42332;52.136;20.666;2023-07-29T11:42:43;3.08;;;1.65;;
56429;SDS011;42332;52.136;20.666;2023-07-29T11:45:10;3.50;;;1.70;;
56429;SDS011;42332;52.136;20.666;2023-07-29T11:47:36;5.15;;;1.70;;
56429;SDS011;42332;52.136;20.666;2023-07-29T11:50:04;3.03;;;1.40;;
56429;SDS011;42332;52.136;20.666;2023-07-29T11:52:35;3.50;;;1.63;;
56429;SDS011;42332;52.136;20.666;2023-07-29T11:55:02;4.45;;;1.70;;
56429;SDS011;42332;52.136;20.666;2023-07-29T11:57:31;8.18;;;1.98;;
56429;SDS011;42332;52.136;20.666;2023-07-29T12:00:03;3.58;;;1.73;;
56429;SDS011;42332;52.136;20.666;2023-07-29T12:02:31;4.78;;;1.90;;
56429;SDS011;42332;52.136;20.666;2023-07-29T12:04:57;3.83;;;1.67;;
56429;SDS011;42332;52.136;20.666;2023-07-29T12:07:23;3.63;;;1.85;;
56429;SDS011;42332;52.136;20.666;2023-07-29T12:09:48;5.18;;;1.70;;
56429;SDS011;42332;52.136;20.666;2023-07-29T12:12:14;4.00;;;1.65;;
56429;SDS011;42332;52.136;20.666;2023-07-29T12:14:42;5.22;;;1.55;;
56429;SDS011;42332;52.136;20.666;2023-07-29T12:17:08;4.78;;;1.90;;
56429;SDS011;42332;52.136;20.666;2023-07-29T12:19:35;3.60;;;1.67;;
56429;SDS011;42332;52.136;20.666;2023-07-29T12:22:02;4.95;;;1.90;;
56429;SDS011;42332;52.136;20.666;2023-07-29T12:24:31;3.40;;;1.48;;
56429;SDS011;42332;52.136;20.666;2023-07-29T12:26:57;4.00;;;1.80;;
56429;SDS011;42332;52.136;20.666;2023-07-29T12:29:23;4.22;;;1.70;;
56429;SDS011;42332;52.136;20.666;2023-07-29T12:31:49;4.43;;;1.60;;
56429;SDS011;42332;52.136;20.666;2023-07-29T12:34:24;3.90;;;1.60;;
56429;SDS011;42332;52.136;20.666;2023-07-29T12:36:51;3.60;;;1.58;;
56429;SDS011;42332;52.136;20.666;2023-07-29T12:41:46;3.90;;;1.50;;
56429;SDS011;42332;52.136;20.666;2023-07-29T12:44:14;3.85;;;1.40;;
56429;SDS011;42332;52.136;20.666;2023-07-29T12:46:39;3.80;;;1.70;;
56429;SDS011;42332;52.136;20.666;2023-07-29T12:49:05;3.10;;;1.60;;
56429;SDS011;42332;52.136;20.666;2023-07-29T12:51:30;3.72;;;1.60;;
56429;SDS011;42332;52.136;20.666;2023-07-29T12:53:56;5.35;;;1.35;;
56429;SDS011;42332;52.136;20.666;2023-07-29T12:56:22;3.67;;;1.52;;
56429;SDS011;42332;52.136;20.666;2023-07-29T12:58:47;2.72;;;1.27;;
56429;SDS011;42332;52.136;20.666;2023-07-29T13:01:13;14.00;;;1.60;;
56429;SDS011;42332;52.136;20.666;2023-07-29T13:03:42;2.97;;;1.42;;
56429;SDS011;42332;52.136;20.666;2023-07-29T13:06:07;3.63;;;1.88;;
56429;SDS011;42332;52.136;20.666;2023-07-29T13:08:32;2.88;;;1.40;;
56429;SDS011;42332;52.136;20.666;2023-07-29T13:10:58;3.42;;;1.42;;
56429;SDS011;42332;52.136;20.666;2023-07-29T13:13:23;3.30;;;1.45;;
56429;SDS011;42332;52.136;20.666;2023-07-29T13:15:48;3.13;;;1.50;;
56429;SDS011;42332;52.136;20.666;2023-07-29T13:18:14;3.47;;;1.73;;
56429;SDS011;42332;52.136;20.666;2023-07-29T13:20:39;3.10;;;1.40;;
56429;SDS011;42332;52.136;20.666;2023-07-29T13:23:04;7.55;;;1.58;;
56429;SDS011;42332;52.136;20.666;2023-07-29T13:25:30;2.42;;;1.10;;
56429;SDS011;42332;52.136;20.666;2023-07-29T13:27:55;8.98;;;2.10;;
56429;SDS011;42332;52.136;20.666;2023-07-29T13:30:21;3.25;;;1.55;;
56429;SDS011;42332;52.136;20.666;2023-07-29T13:32:46;2.75;;;1.25;;
56429;SDS011;42332;52.136;20.666;2023-07-29T13:35:11;3.33;;;1.33;;
56429;SDS011;42332;52.136;20.666;2023-07-29T13:37:37;3.30;;;1.50;;
56429;SDS011;42332;52.136;20.666;2023-07-29T13:40:02;5.32;;;1.63;;
56429;SDS011;42332;52.136;20.666;2023-07-29T13:42:28;6.30;;;1.35;;
56429;SDS011;42332;52.136;20.666;2023-07-29T13:44:53;4.05;;;1.55;;
56429;SDS011;42332;52.136;20.666;2023-07-29T13:47:18;4.50;;;1.73;;
56429;SDS011;42332;52.136;20.666;2023-07-29T13:49:44;4.20;;;1.40;;
56429;SDS011;42332;52.136;20.666;2023-07-29T13:52:09;3.38;;;1.30;;
56429;SDS011;42332;52.136;20.666;2023-07-29T13:54:34;4.38;;;1.40;;
56429;SDS011;42332;52.136;20.666;2023-07-29T13:57:00;3.85;;;1.50;;
56429;SDS011;42332;52.136;20.666;2023-07-29T13:59:25;3.80;;;1.40;;
56429;SDS011;42332;52.136;20.666;2023-07-29T14:01:50;7.32;;;1.50;;
56429;SDS011;42332;52.136;20.666;2023-07-29T14:04:16;3.08;;;1.45;;
56429;SDS011;42332;52.136;20.666;2023-07-29T14:06:41;4.50;;;1.40;;
56429;SDS011;42332;52.136;20.666;2023-07-29T14:09:06;3.33;;;1.40;;
56429;SDS011;42332;52.136;20.666;2023-07-29T14:11:32;3.72;;;1.40;;
56429;SDS011;42332;52.136;20.666;2023-07-29T14:13:57;3.35;;;1.40;;
56429;SDS011;42332;52.136;20.666;2023-07-29T14:16:22;5.65;;;1.60;;
56429;SDS011;42332;52.136;20.666;2023-07-29T14:18:47;3.03;;;1.40;;
56429;SDS011;42332;52.136;20.666;2023-07-29T14:21:13;6.28;;;1.27;;
56429;SDS011;42332;52.136;20.666;2023-07-29T14:23:38;4.30;;;1.50;;
56429;SDS011;42332;52.136;20.666;2023-07-29T14:26:03;4.18;;;1.38;;
56429;SDS011;42332;52.136;20.666;2023-07-29T14:28:29;2.70;;;1.17;;
56429;SDS011;42332;52.136;20.666;2023-07-29T14:30:55;2.80;;;1.30;;